sensor_id;sensor_type;location;lat;lon;timestamp;P1;durP1;ratioP1;P2;durP2;ratioP2
66353;SDS011;53150;48.296;16.452;2022-11-20T00:01:20;19.17;;;9.40;;
66353;SDS011;53150;48.296;16.452;2022-11-20T00:03:46;17.55;;;8.75;;
66353;SDS011;53150;48.296;16.452;2022-11-20T00:06:14;18.42;;;8.95;;
66353;SDS011;53150;48.296;16.452;2022-11-20T00:08:40;17.65;;;8.90;;
66353;SDS011;53150;48.296;16.452;2022-11-20T00:11:07;16.30;;;8.40;;
66353;SDS011;53150;48.296;16.452;2022-11-20T00:13:34;18.50;;;9.00;;
66353;SDS011;53150;48.296;16.452;2022-11-20T00:16:00;19.75;;;8.95;;
66353;SDS011;53150;48.296;16.452;2022-11-20T00:18:27;20.35;;;9.27;;
66353;SDS011;53150;48.296;16.452;2022-11-20T00:20:54;21.35;;;10.18;;
66353;SDS011;53150;48.296;16.452;2022-11-20T00:23:25;21.10;;;9.32;;
66353;SDS011;53150;48.296;16.452;2022-11-20T00:25:51;17.33;;;8.75;;
66353;SDS011;53150;48.296;16.452;2022-11-20T00:28:17;17.67;;;8.52;;
66353;SDS011;53150;48.296;16.452;2022-11-20T00:30:43;16.85;;;8.35;;
66353;SDS011;53150;48.296;16.452;2022-11-20T00:33:09;24.55;;;9.35;;
66353;SDS011;53150;48.296;16.452;2022-11-20T00:35:35;20.13;;;9.80;;
66353;SDS011;53150;48.296;16.452;2022-11-20T00:38:01;21.20;;;9.23;;
66353;SDS011;53150;48.296;16.452;2022-11-20T00:40:27;16.52;;;9.30;;
66353;SDS011;53150;48.296;16.452;2022-11-20T00:42:53;17.75;;;8.85;;
66353;SDS011;53150;48.296;16.452;2022-11-20T00:45:19;18.42;;;8.82;;
66353;SDS011;53150;48.296;16.452;2022-11-20T00:47:46;18.23;;;8.98;;
66353;SDS011;53150;48.296;16.452;2022-11-20T00:50:12;20.13;;;10.50;;
66353;SDS011;53150;48.296;16.452;2022-11-20T00:52:38;17.50;;;10.15;;
66353;SDS011;53150;48.296;16.452;2022-11-20T00:55:04;19.33;;;9.30;;
66353;SDS011;53150;48.296;16.452;2022-11-20T00:57:30;15.52;;;8.45;;
66353;SDS011;53150;48.296;16.452;2022-11-20T00:59:57;18.33;;;8.48;;
66353;SDS011;53150;48.296;16.452;2022-11-20T01:02:23;18.38;;;9.60;;
66353;SDS011;53150;48.296;16.452;2022-11-20T01:04:49;20.42;;;9.27;;
66353;SDS011;53150;48.296;16.452;2022-11-20T01:07:15;19.98;;;9.80;;
66353;SDS011;53150;48.296;16.452;2022-11-20T01:09:41;20.95;;;9.43;;
66353;SDS011;53150;48.296;16.452;2022-11-20T01:12:07;20.25;;;9.73;;
66353;SDS011;53150;48.296;16.452;2022-11-20T01:14:33;18.38;;;9.50;;
66353;SDS011;53150;48.296;16.452;2022-11-20T01:16:59;20.17;;;9.88;;
66353;SDS011;53150;48.296;16.452;2022-11-20T01:19:25;17.25;;;9.25;;
66353;SDS011;53150;48.296;16.452;2022-11-20T01:21:52;20.10;;;9.68;;
66353;SDS011;53150;48.296;16.452;2022-11-20T01:24:19;16.33;;;8.65;;
66353;SDS011;53150;48.296;16.452;2022-11-20T01:26:46;18.88;;;9.13;;
66353;SDS011;53150;48.296;16.452;2022-11-20T01:29:14;18.73;;;8.60;;
66353;SDS011;53150;48.296;16.452;2022-11-20T01:31:41;18.27;;;9.00;;
66353;SDS011;53150;48.296;16.452;2022-11-20T01:34:09;18.15;;;9.52;;
66353;SDS011;53150;48.296;16.452;2022-11-20T01:36:35;15.20;;;9.35;;
66353;SDS011;53150;48.296;16.452;2022-11-20T01:39:03;19.73;;;9.73;;
66353;SDS011;53150;48.296;16.452;2022-11-20T01:41:30;17.70;;;8.80;;
66353;SDS011;53150;48.296;16.452;2022-11-20T01:44:16;18.75;;;9.93;;
66353;SDS011;53150;48.296;16.452;2022-11-20T01:46:52;18.38;;;9.40;;
66353;SDS011;53150;48.296;16.452;2022-11-20T01:49:33;18.17;;;8.85;;
66353;SDS011;53150;48.296;16.452;2022-11-20T01:52:01;19.77;;;8.95;;
66353;SDS011;53150;48.296;16.452;2022-11-20T01:54:34;18.67;;;9.75;;
66353;SDS011;53150;48.296;16.452;2022-11-20T01:57:01;21.37;;;9.73;;
66353;SDS011;53150;48.296;16.452;2022-11-20T01:59:29;18.55;;;9.45;;
66353;SDS011;53150;48.296;16.452;2022-11-20T02:01:55;24.30;;;11.00;;
66353;SDS011;53150;48.296;16.452;2022-11-20T02:04:21;22.80;;;10.82;;
66353;SDS011;53150;48.296;16.452;2022-11-20T02:06:49;20.48;;;10.48;;
66353;SDS011;53150;48.296;16.452;2022-11-20T02:09:17;21.75;;;10.65;;
66353;SDS011;53150;48.296;16.452;2022-11-20T02:11:43;21.85;;;10.25;;
66353;SDS011;53150;48.296;16.452;2022-11-20T02:14:09;19.13;;;10.50;;
66353;SDS011;53150;48.296;16.452;2022-11-20T02:16:36;18.23;;;9.50;;
66353;SDS011;53150;48.296;16.452;2022-11-20T02:19:04;18.90;;;9.05;;
66353;SDS011;53150;48.296;16.452;2022-11-20T02:24:17;19.02;;;9.40;;
66353;SDS011;53150;48.296;16.452;2022-11-20T02:26:49;19.33;;;8.93;;
66353;SDS011;53150;48.296;16.452;2022-11-20T02:31:42;22.23;;;8.82;;
66353;SDS011;53150;48.296;16.452;2022-11-20T02:34:09;18.92;;;9.13;;
66353;SDS011;53150;48.296;16.452;2022-11-20T02:36:35;18.77;;;9.55;;
66353;SDS011;53150;48.296;16.452;2022-11-20T02:39:02;18.83;;;9.25;;
66353;SDS011;53150;48.296;16.452;2022-11-20T02:41:33;20.33;;;10.93;;
66353;SDS011;53150;48.296;16.452;2022-11-20T02:43:59;22.23;;;10.18;;
66353;SDS011;53150;48.296;16.452;2022-11-20T02:46:25;19.85;;;9.63;;
66353;SDS011;53150;48.296;16.452;2022-11-20T02:48:51;19.52;;;10.73;;
66353;SDS011;53150;48.296;16.452;2022-11-20T02:51:17;23.48;;;10.35;;
66353;SDS011;53150;48.296;16.452;2022-11-20T02:53:43;25.13;;;11.05;;
66353;SDS011;53150;48.296;16.452;2022-11-20T02:56:09;18.38;;;9.57;;
66353;SDS011;53150;48.296;16.452;2022-11-20T02:58:36;21.23;;;8.93;;
66353;SDS011;53150;48.296;16.452;2022-11-20T03:01:02;19.75;;;9.63;;
66353;SDS011;53150;48.296;16.452;2022-11-20T03:03:28;18.20;;;9.65;;
66353;SDS011;53150;48.296;16.452;2022-11-20T03:05:54;20.23;;;9.98;;
66353;SDS011;53150;48.296;16.452;2022-11-20T03:08:20;18.05;;;9.73;;
66353;SDS011;53150;48.296;16.452;2022-11-20T03:10:46;22.23;;;9.13;;
66353;SDS011;53150;48.296;16.452;2022-11-20T03:13:12;16.75;;;9.23;;
66353;SDS011;53150;48.296;16.452;2022-11-20T03:15:38;18.60;;;10.88;;
66353;SDS011;53150;48.296;16.452;2022-11-20T03:18:04;23.92;;;9.65;;
66353;SDS011;53150;48.296;16.452;2022-11-20T03:20:31;21.48;;;10.15;;
66353;SDS011;53150;48.296;16.452;2022-11-20T03:22:57;19.65;;;9.73;;
66353;SDS011;53150;48.296;16.452;2022-11-20T03:25:23;19.88;;;9.32;;
66353;SDS011;53150;48.296;16.452;2022-11-20T03:27:50;20.13;;;9.80;;
66353;SDS011;53150;48.296;16.452;2022-11-20T03:30:16;19.40;;;9.45;;
66353;SDS011;53150;48.296;16.452;2022-11-20T03:32:42;19.13;;;9.93;;
66353;SDS011;53150;48.296;16.452;2022-11-20T03:35:08;21.10;;;10.15;;
66353;SDS011;53150;48.296;16.452;2022-11-20T03:37:34;21.02;;;10.27;;
66353;SDS011;53150;48.296;16.452;2022-11-20T03:40:00;21.48;;;10.02;;
66353;SDS011;53150;48.296;16.452;2022-11-20T03:42:26;20.02;;;10.73;;
66353;SDS011;53150;48.296;16.452;2022-11-20T03:45:10;18.20;;;9.70;;
66353;SDS011;53150;48.296;16.452;2022-11-20T03:47:37;19.48;;;9.23;;
66353;SDS011;53150;48.296;16.452;2022-11-20T03:50:03;19.05;;;9.07;;
66353;SDS011;53150;48.296;16.452;2022-11-20T03:52:29;20.45;;;9.10;;
66353;SDS011;53150;48.296;16.452;2022-11-20T03:54:55;22.10;;;11.13;;
66353;SDS011;53150;48.296;16.452;2022-11-20T03:57:21;23.65;;;10.48;;
66353;SDS011;53150;48.296;16.452;2022-11-20T03:59:47;21.83;;;10.18;;
66353;SDS011;53150;48.296;16.452;2022-11-20T04:02:13;20.98;;;10.10;;
66353;SDS011;53150;48.296;16.452;2022-11-20T04:04:39;20.38;;;10.05;;
66353;SDS011;53150;48.296;16.452;2022-11-20T04:07:05;17.17;;;9.18;;
66353;SDS011;53150;48.296;16.452;2022-11-20T04:09:31;17.25;;;9.25;;
66353;SDS011;53150;48.296;16.452;2022-11-20T04:11:57;22.20;;;9.95;;
66353;SDS011;53150;48.296;16.452;2022-11-20T04:14:23;20.98;;;10.48;;
66353;SDS011;53150;48.296;16.452;2022-11-20T04:16:49;20.10;;;10.05;;
66353;SDS011;53150;48.296;16.452;2022-11-20T04:19:16;21.27;;;9.55;;
66353;SDS011;53150;48.296;16.452;2022-11-20T04:21:42;22.95;;;9.38;;
66353;SDS011;53150;48.296;16.452;2022-11-20T04:24:09;21.27;;;10.65;;
66353;SDS011;53150;48.296;16.452;2022-11-20T04:26:38;19.52;;;10.30;;
66353;SDS011;53150;48.296;16.452;2022-11-20T04:29:04;21.77;;;11.00;;
66353;SDS011;53150;48.296;16.452;2022-11-20T04:31:34;20.65;;;10.38;;
66353;SDS011;53150;48.296;16.452;2022-11-20T04:34:01;24.75;;;10.50;;
66353;SDS011;53150;48.296;16.452;2022-11-20T04:36:28;25.38;;;10.95;;
66353;SDS011;53150;48.296;16.452;2022-11-20T04:38:57;20.73;;;10.25;;
66353;SDS011;53150;48.296;16.452;2022-11-20T04:41:27;25.40;;;11.55;;
66353;SDS011;53150;48.296;16.452;2022-11-20T04:43:55;20.42;;;10.68;;
66353;SDS011;53150;48.296;16.452;2022-11-20T04:46:27;25.52;;;11.02;;
66353;SDS011;53150;48.296;16.452;2022-11-20T04:48:53;26.63;;;11.95;;
66353;SDS011;53150;48.296;16.452;2022-11-20T04:51:19;26.30;;;11.98;;
66353;SDS011;53150;48.296;16.452;2022-11-20T04:53:46;21.25;;;10.50;;
66353;SDS011;53150;48.296;16.452;2022-11-20T04:56:12;21.70;;;10.40;;
66353;SDS011;53150;48.296;16.452;2022-11-20T04:58:39;26.85;;;10.85;;
66353;SDS011;53150;48.296;16.452;2022-11-20T05:01:15;20.08;;;10.40;;
66353;SDS011;53150;48.296;16.452;2022-11-20T05:03:42;21.20;;;10.73;;
66353;SDS011;53150;48.296;16.452;2022-11-20T05:06:09;19.38;;;9.80;;
66353;SDS011;53150;48.296;16.452;2022-11-20T05:08:35;23.67;;;12.00;;
66353;SDS011;53150;48.296;16.452;2022-11-20T05:11:04;22.90;;;9.95;;
66353;SDS011;53150;48.296;16.452;2022-11-20T05:13:30;21.25;;;10.43;;
66353;SDS011;53150;48.296;16.452;2022-11-20T05:16:03;23.90;;;11.05;;
66353;SDS011;53150;48.296;16.452;2022-11-20T05:18:30;23.77;;;11.63;;
66353;SDS011;53150;48.296;16.452;2022-11-20T05:20:57;25.58;;;11.50;;
66353;SDS011;53150;48.296;16.452;2022-11-20T05:23:24;24.08;;;11.38;;
66353;SDS011;53150;48.296;16.452;2022-11-20T05:25:54;25.73;;;12.13;;
66353;SDS011;53150;48.296;16.452;2022-11-20T05:28:21;23.92;;;11.70;;
66353;SDS011;53150;48.296;16.452;2022-11-20T05:30:47;21.73;;;11.07;;
66353;SDS011;53150;48.296;16.452;2022-11-20T05:33:13;25.23;;;10.38;;
66353;SDS011;53150;48.296;16.452;2022-11-20T05:35:40;26.00;;;11.85;;
66353;SDS011;53150;48.296;16.452;2022-11-20T05:38:06;26.73;;;13.85;;
66353;SDS011;53150;48.296;16.452;2022-11-20T05:40:32;26.08;;;11.75;;
66353;SDS011;53150;48.296;16.452;2022-11-20T05:42:59;25.38;;;12.63;;
66353;SDS011;53150;48.296;16.452;2022-11-20T05:45:25;25.58;;;12.60;;
66353;SDS011;53150;48.296;16.452;2022-11-20T05:47:51;28.10;;;12.15;;
66353;SDS011;53150;48.296;16.452;2022-11-20T05:50:17;25.30;;;12.70;;
66353;SDS011;53150;48.296;16.452;2022-11-20T05:52:43;25.33;;;12.40;;
66353;SDS011;53150;48.296;16.452;2022-11-20T05:55:09;23.95;;;11.18;;
66353;SDS011;53150;48.296;16.452;2022-11-20T05:57:35;23.75;;;11.60;;
66353;SDS011;53150;48.296;16.452;2022-11-20T06:00:02;24.27;;;11.75;;
66353;SDS011;53150;48.296;16.452;2022-11-20T06:02:28;25.38;;;12.43;;
66353;SDS011;53150;48.296;16.452;2022-11-20T06:04:54;27.27;;;11.50;;
66353;SDS011;53150;48.296;16.452;2022-11-20T06:07:20;23.77;;;11.93;;
66353;SDS011;53150;48.296;16.452;2022-11-20T06:09:46;26.60;;;11.88;;
66353;SDS011;53150;48.296;16.452;2022-11-20T06:12:12;28.23;;;12.05;;
66353;SDS011;53150;48.296;16.452;2022-11-20T06:14:38;26.92;;;12.57;;
66353;SDS011;53150;48.296;16.452;2022-11-20T06:17:04;26.05;;;11.20;;
66353;SDS011;53150;48.296;16.452;2022-11-20T06:19:30;24.88;;;11.98;;
66353;SDS011;53150;48.296;16.452;2022-11-20T06:21:56;20.58;;;10.20;;
66353;SDS011;53150;48.296;16.452;2022-11-20T06:24:22;25.30;;;11.80;;
66353;SDS011;53150;48.296;16.452;2022-11-20T06:26:50;22.42;;;10.60;;
66353;SDS011;53150;48.296;16.452;2022-11-20T06:29:16;26.17;;;12.07;;
66353;SDS011;53150;48.296;16.452;2022-11-20T06:31:42;24.42;;;12.20;;
66353;SDS011;53150;48.296;16.452;2022-11-20T06:34:08;29.42;;;12.90;;
66353;SDS011;53150;48.296;16.452;2022-11-20T06:36:34;25.73;;;13.00;;
66353;SDS011;53150;48.296;16.452;2022-11-20T06:39:00;24.63;;;11.55;;
66353;SDS011;53150;48.296;16.452;2022-11-20T06:41:26;25.45;;;11.50;;
66353;SDS011;53150;48.296;16.452;2022-11-20T06:43:53;23.73;;;11.77;;
66353;SDS011;53150;48.296;16.452;2022-11-20T06:46:19;23.83;;;11.65;;
66353;SDS011;53150;48.296;16.452;2022-11-20T06:48:46;21.63;;;11.30;;
66353;SDS011;53150;48.296;16.452;2022-11-20T06:51:12;26.67;;;13.13;;
66353;SDS011;53150;48.296;16.452;2022-11-20T06:53:38;23.98;;;11.82;;
66353;SDS011;53150;48.296;16.452;2022-11-20T06:56:05;23.52;;;11.38;;
66353;SDS011;53150;48.296;16.452;2022-11-20T06:58:31;26.67;;;10.88;;
66353;SDS011;53150;48.296;16.452;2022-11-20T07:01:02;26.25;;;12.38;;
66353;SDS011;53150;48.296;16.452;2022-11-20T07:03:28;24.85;;;12.43;;
66353;SDS011;53150;48.296;16.452;2022-11-20T07:05:55;23.23;;;11.85;;
66353;SDS011;53150;48.296;16.452;2022-11-20T07:08:21;25.45;;;11.73;;
66353;SDS011;53150;48.296;16.452;2022-11-20T07:10:47;28.88;;;12.57;;
66353;SDS011;53150;48.296;16.452;2022-11-20T07:13:13;23.00;;;10.38;;
66353;SDS011;53150;48.296;16.452;2022-11-20T07:15:39;22.98;;;11.52;;
66353;SDS011;53150;48.296;16.452;2022-11-20T07:18:05;22.98;;;12.20;;
66353;SDS011;53150;48.296;16.452;2022-11-20T07:20:31;25.00;;;11.77;;
66353;SDS011;53150;48.296;16.452;2022-11-20T07:22:58;27.30;;;12.23;;
66353;SDS011;53150;48.296;16.452;2022-11-20T07:25:25;24.98;;;11.27;;
66353;SDS011;53150;48.296;16.452;2022-11-20T07:27:51;28.15;;;11.73;;
66353;SDS011;53150;48.296;16.452;2022-11-20T07:30:17;25.92;;;12.60;;
66353;SDS011;53150;48.296;16.452;2022-11-20T07:32:47;23.08;;;12.45;;
66353;SDS011;53150;48.296;16.452;2022-11-20T07:35:13;24.23;;;11.93;;
66353;SDS011;53150;48.296;16.452;2022-11-20T07:37:39;23.52;;;12.90;;
66353;SDS011;53150;48.296;16.452;2022-11-20T07:40:05;23.63;;;11.50;;
66353;SDS011;53150;48.296;16.452;2022-11-20T07:42:32;27.23;;;12.45;;
66353;SDS011;53150;48.296;16.452;2022-11-20T07:44:58;25.95;;;11.82;;
66353;SDS011;53150;48.296;16.452;2022-11-20T07:47:24;22.52;;;11.35;;
66353;SDS011;53150;48.296;16.452;2022-11-20T07:49:50;26.08;;;13.20;;
66353;SDS011;53150;48.296;16.452;2022-11-20T07:52:16;23.88;;;12.52;;
66353;SDS011;53150;48.296;16.452;2022-11-20T07:54:41;25.20;;;13.98;;
66353;SDS011;53150;48.296;16.452;2022-11-20T07:57:07;26.52;;;13.48;;
66353;SDS011;53150;48.296;16.452;2022-11-20T07:59:34;24.42;;;12.75;;
66353;SDS011;53150;48.296;16.452;2022-11-20T08:02:00;27.55;;;12.25;;
66353;SDS011;53150;48.296;16.452;2022-11-20T08:04:26;26.73;;;12.70;;
66353;SDS011;53150;48.296;16.452;2022-11-20T08:06:52;29.38;;;13.25;;
66353;SDS011;53150;48.296;16.452;2022-11-20T08:09:18;28.75;;;13.43;;
66353;SDS011;53150;48.296;16.452;2022-11-20T08:11:44;25.35;;;12.60;;
66353;SDS011;53150;48.296;16.452;2022-11-20T08:14:29;25.08;;;13.23;;
66353;SDS011;53150;48.296;16.452;2022-11-20T08:16:54;26.77;;;12.50;;
66353;SDS011;53150;48.296;16.452;2022-11-20T08:19:20;27.13;;;13.65;;
66353;SDS011;53150;48.296;16.452;2022-11-20T08:21:46;22.40;;;11.55;;
66353;SDS011;53150;48.296;16.452;2022-11-20T08:24:12;24.98;;;13.57;;
66353;SDS011;53150;48.296;16.452;2022-11-20T08:26:39;30.55;;;14.23;;
66353;SDS011;53150;48.296;16.452;2022-11-20T08:29:06;27.65;;;13.18;;
66353;SDS011;53150;48.296;16.452;2022-11-20T08:31:32;26.65;;;12.63;;
66353;SDS011;53150;48.296;16.452;2022-11-20T08:33:58;24.67;;;12.52;;
66353;SDS011;53150;48.296;16.452;2022-11-20T08:36:24;23.63;;;12.77;;
66353;SDS011;53150;48.296;16.452;2022-11-20T08:38:51;27.25;;;12.68;;
66353;SDS011;53150;48.296;16.452;2022-11-20T08:41:18;29.73;;;12.13;;
66353;SDS011;53150;48.296;16.452;2022-11-20T08:43:57;23.17;;;13.30;;
66353;SDS011;53150;48.296;16.452;2022-11-20T08:46:25;26.60;;;13.50;;
66353;SDS011;53150;48.296;16.452;2022-11-20T08:48:51;24.23;;;12.18;;
66353;SDS011;53150;48.296;16.452;2022-11-20T08:51:17;28.35;;;12.63;;
66353;SDS011;53150;48.296;16.452;2022-11-20T08:53:43;28.88;;;13.55;;
66353;SDS011;53150;48.296;16.452;2022-11-20T08:56:10;23.45;;;12.05;;
66353;SDS011;53150;48.296;16.452;2022-11-20T08:58:36;27.70;;;12.52;;
66353;SDS011;53150;48.296;16.452;2022-11-20T09:01:02;25.48;;;13.18;;
66353;SDS011;53150;48.296;16.452;2022-11-20T09:03:28;28.30;;;13.98;;
66353;SDS011;53150;48.296;16.452;2022-11-20T09:06:01;23.95;;;13.18;;
66353;SDS011;53150;48.296;16.452;2022-11-20T09:08:28;28.33;;;13.27;;
66353;SDS011;53150;48.296;16.452;2022-11-20T09:10:55;27.70;;;12.52;;
66353;SDS011;53150;48.296;16.452;2022-11-20T09:13:21;29.35;;;14.48;;
66353;SDS011;53150;48.296;16.452;2022-11-20T09:15:52;27.90;;;14.18;;
66353;SDS011;53150;48.296;16.452;2022-11-20T09:18:18;23.83;;;12.98;;
66353;SDS011;53150;48.296;16.452;2022-11-20T09:20:44;32.00;;;14.32;;
66353;SDS011;53150;48.296;16.452;2022-11-20T09:23:10;23.92;;;12.27;;
66353;SDS011;53150;48.296;16.452;2022-11-20T09:25:36;25.85;;;13.95;;
66353;SDS011;53150;48.296;16.452;2022-11-20T09:28:02;28.20;;;13.95;;
66353;SDS011;53150;48.296;16.452;2022-11-20T09:30:28;26.48;;;14.20;;
66353;SDS011;53150;48.296;16.452;2022-11-20T09:32:55;26.52;;;14.02;;
66353;SDS011;53150;48.296;16.452;2022-11-20T09:35:22;28.50;;;15.35;;
66353;SDS011;53150;48.296;16.452;2022-11-20T09:37:48;28.40;;;13.77;;
66353;SDS011;53150;48.296;16.452;2022-11-20T09:40:24;28.40;;;13.52;;
66353;SDS011;53150;48.296;16.452;2022-11-20T09:56:40;26.67;;;13.18;;
66353;SDS011;53150;48.296;16.452;2022-11-20T09:59:08;28.83;;;15.07;;
66353;SDS011;53150;48.296;16.452;2022-11-20T10:01:39;34.90;;;14.00;;
66353;SDS011;53150;48.296;16.452;2022-11-20T10:04:17;32.60;;;13.82;;
66353;SDS011;53150;48.296;16.452;2022-11-20T10:30:00;30.67;;;11.85;;
66353;SDS011;53150;48.296;16.452;2022-11-20T10:32:29;25.65;;;12.82;;
66353;SDS011;53150;48.296;16.452;2022-11-20T10:37:42;32.95;;;13.02;;
66353;SDS011;53150;48.296;16.452;2022-11-20T10:40:18;29.42;;;13.88;;
66353;SDS011;53150;48.296;16.452;2022-11-20T10:42:54;25.73;;;12.63;;
66353;SDS011;53150;48.296;16.452;2022-11-20T10:48:12;28.33;;;13.30;;
66353;SDS011;53150;48.296;16.452;2022-11-20T10:50:37;33.30;;;14.60;;
66353;SDS011;53150;48.296;16.452;2022-11-20T10:53:13;27.73;;;14.55;;
66353;SDS011;53150;48.296;16.452;2022-11-20T10:55:45;30.45;;;12.85;;
66353;SDS011;53150;48.296;16.452;2022-11-20T11:00:38;28.65;;;14.30;;
66353;SDS011;53150;48.296;16.452;2022-11-20T11:03:10;30.15;;;14.68;;
66353;SDS011;53150;48.296;16.452;2022-11-20T11:08:26;29.42;;;14.95;;
66353;SDS011;53150;48.296;16.452;2022-11-20T11:10:57;30.15;;;14.30;;
66353;SDS011;53150;48.296;16.452;2022-11-20T11:13:25;30.45;;;15.88;;
66353;SDS011;53150;48.296;16.452;2022-11-20T11:15:52;26.92;;;14.80;;
66353;SDS011;53150;48.296;16.452;2022-11-20T11:18:29;29.33;;;16.38;;
66353;SDS011;53150;48.296;16.452;2022-11-20T11:20:56;25.95;;;13.48;;
66353;SDS011;53150;48.296;16.452;2022-11-20T11:23:35;34.40;;;15.45;;
66353;SDS011;53150;48.296;16.452;2022-11-20T11:26:03;28.48;;;14.68;;
66353;SDS011;53150;48.296;16.452;2022-11-20T11:28:30;31.98;;;14.88;;
66353;SDS011;53150;48.296;16.452;2022-11-20T11:30:56;32.88;;;16.40;;
66353;SDS011;53150;48.296;16.452;2022-11-20T11:35:49;28.17;;;14.15;;
66353;SDS011;53150;48.296;16.452;2022-11-20T11:38:36;32.83;;;16.65;;
66353;SDS011;53150;48.296;16.452;2022-11-20T11:41:04;29.77;;;15.48;;
66353;SDS011;53150;48.296;16.452;2022-11-20T11:43:34;32.47;;;16.42;;
66353;SDS011;53150;48.296;16.452;2022-11-20T11:48:55;31.75;;;16.13;;
66353;SDS011;53150;48.296;16.452;2022-11-20T11:51:22;29.77;;;17.20;;
66353;SDS011;53150;48.296;16.452;2022-11-20T11:53:48;31.40;;;16.17;;
66353;SDS011;53150;48.296;16.452;2022-11-20T11:56:14;31.20;;;16.67;;
66353;SDS011;53150;48.296;16.452;2022-11-20T11:58:44;34.38;;;17.05;;
66353;SDS011;53150;48.296;16.452;2022-11-20T12:03:40;31.00;;;16.10;;
66353;SDS011;53150;48.296;16.452;2022-11-20T12:06:12;35.45;;;18.67;;
66353;SDS011;53150;48.296;16.452;2022-11-20T12:14:13;30.42;;;15.68;;
66353;SDS011;53150;48.296;16.452;2022-11-20T12:16:40;31.17;;;15.90;;
66353;SDS011;53150;48.296;16.452;2022-11-20T12:19:10;31.90;;;16.77;;
66353;SDS011;53150;48.296;16.452;2022-11-20T12:37:37;28.60;;;15.63;;
66353;SDS011;53150;48.296;16.452;2022-11-20T12:42:52;29.38;;;17.52;;
66353;SDS011;53150;48.296;16.452;2022-11-20T12:45:50;29.35;;;16.55;;
66353;SDS011;53150;48.296;16.452;2022-11-20T12:53:33;30.33;;;16.70;;
66353;SDS011;53150;48.296;16.452;2022-11-20T12:58:46;28.13;;;17.38;;
66353;SDS011;53150;48.296;16.452;2022-11-20T13:04:07;28.02;;;16.02;;
66353;SDS011;53150;48.296;16.452;2022-11-20T13:06:34;30.23;;;17.07;;
66353;SDS011;53150;48.296;16.452;2022-11-20T13:09:00;31.80;;;19.33;;
66353;SDS011;53150;48.296;16.452;2022-11-20T13:19:22;32.13;;;16.08;;
66353;SDS011;53150;48.296;16.452;2022-11-20T13:21:49;31.50;;;16.73;;
66353;SDS011;53150;48.296;16.452;2022-11-20T13:26:45;32.17;;;19.15;;
66353;SDS011;53150;48.296;16.452;2022-11-20T13:29:12;32.10;;;16.17;;
66353;SDS011;53150;48.296;16.452;2022-11-20T13:31:43;37.83;;;17.70;;
66353;SDS011;53150;48.296;16.452;2022-11-20T13:34:11;30.30;;;16.02;;
66353;SDS011;53150;48.296;16.452;2022-11-20T13:36:38;32.47;;;16.88;;
66353;SDS011;53150;48.296;16.452;2022-11-20T13:39:23;31.08;;;18.55;;
66353;SDS011;53150;48.296;16.452;2022-11-20T13:41:56;34.20;;;18.95;;
66353;SDS011;53150;48.296;16.452;2022-11-20T13:44:24;33.35;;;19.17;;
66353;SDS011;53150;48.296;16.452;2022-11-20T13:46:51;41.33;;;22.02;;
66353;SDS011;53150;48.296;16.452;2022-11-20T13:49:25;31.05;;;17.33;;
66353;SDS011;53150;48.296;16.452;2022-11-20T13:51:53;34.88;;;17.60;;
66353;SDS011;53150;48.296;16.452;2022-11-20T14:00:16;29.00;;;16.67;;
66353;SDS011;53150;48.296;16.452;2022-11-20T14:02:43;34.53;;;18.15;;
66353;SDS011;53150;48.296;16.452;2022-11-20T14:05:22;34.10;;;16.50;;
66353;SDS011;53150;48.296;16.452;2022-11-20T14:07:48;26.35;;;15.88;;
66353;SDS011;53150;48.296;16.452;2022-11-20T14:10:22;32.13;;;16.98;;
66353;SDS011;53150;48.296;16.452;2022-11-20T14:12:48;31.52;;;17.08;;
66353;SDS011;53150;48.296;16.452;2022-11-20T14:17:51;34.63;;;17.80;;
66353;SDS011;53150;48.296;16.452;2022-11-20T14:20:17;31.92;;;17.02;;
66353;SDS011;53150;48.296;16.452;2022-11-20T14:22:51;35.08;;;18.02;;
66353;SDS011;53150;48.296;16.452;2022-11-20T14:28:04;28.13;;;15.90;;
66353;SDS011;53150;48.296;16.452;2022-11-20T14:30:37;30.85;;;17.08;;
66353;SDS011;53150;48.296;16.452;2022-11-20T14:33:09;31.83;;;17.02;;
66353;SDS011;53150;48.296;16.452;2022-11-20T14:35:37;29.73;;;16.00;;
66353;SDS011;53150;48.296;16.452;2022-11-20T14:38:08;30.92;;;16.17;;
66353;SDS011;53150;48.296;16.452;2022-11-20T14:40:35;25.10;;;14.98;;
66353;SDS011;53150;48.296;16.452;2022-11-20T14:43:04;29.88;;;15.82;;
66353;SDS011;53150;48.296;16.452;2022-11-20T14:45:41;31.67;;;16.45;;
66353;SDS011;53150;48.296;16.452;2022-11-20T14:48:08;28.13;;;15.80;;
66353;SDS011;53150;48.296;16.452;2022-11-20T14:50:35;29.58;;;15.27;;
66353;SDS011;53150;48.296;16.452;2022-11-20T14:53:01;29.05;;;16.23;;
66353;SDS011;53150;48.296;16.452;2022-11-20T14:58:01;32.20;;;14.93;;
66353;SDS011;53150;48.296;16.452;2022-11-20T15:00:27;33.83;;;16.30;;
66353;SDS011;53150;48.296;16.452;2022-11-20T15:02:54;29.35;;;14.15;;
66353;SDS011;53150;48.296;16.452;2022-11-20T15:05:21;30.67;;;15.77;;
66353;SDS011;53150;48.296;16.452;2022-11-20T15:07:52;26.90;;;15.43;;
66353;SDS011;53150;48.296;16.452;2022-11-20T15:10:29;35.00;;;17.73;;
66353;SDS011;53150;48.296;16.452;2022-11-20T15:13:05;35.90;;;18.83;;
66353;SDS011;53150;48.296;16.452;2022-11-20T15:18:11;29.30;;;16.27;;
66353;SDS011;53150;48.296;16.452;2022-11-20T15:20:38;32.83;;;17.33;;
66353;SDS011;53150;48.296;16.452;2022-11-20T15:23:14;28.52;;;16.10;;
66353;SDS011;53150;48.296;16.452;2022-11-20T15:25:40;30.50;;;17.55;;
66353;SDS011;53150;48.296;16.452;2022-11-20T15:28:12;27.92;;;15.82;;
66353;SDS011;53150;48.296;16.452;2022-11-20T15:30:39;30.58;;;16.95;;
66353;SDS011;53150;48.296;16.452;2022-11-20T15:33:07;25.77;;;14.98;;
66353;SDS011;53150;48.296;16.452;2022-11-20T15:35:34;29.92;;;15.57;;
66353;SDS011;53150;48.296;16.452;2022-11-20T15:38:00;31.75;;;17.02;;
66353;SDS011;53150;48.296;16.452;2022-11-20T15:40:26;29.70;;;17.23;;
66353;SDS011;53150;48.296;16.452;2022-11-20T15:42:52;30.83;;;16.98;;
66353;SDS011;53150;48.296;16.452;2022-11-20T15:47:59;32.53;;;17.33;;
66353;SDS011;53150;48.296;16.452;2022-11-20T15:50:27;32.00;;;18.58;;
66353;SDS011;53150;48.296;16.452;2022-11-20T15:52:54;31.15;;;16.67;;
66353;SDS011;53150;48.296;16.452;2022-11-20T15:55:20;33.70;;;18.23;;
66353;SDS011;53150;48.296;16.452;2022-11-20T15:57:46;42.15;;;22.50;;
66353;SDS011;53150;48.296;16.452;2022-11-20T16:00:13;36.10;;;21.98;;
66353;SDS011;53150;48.296;16.452;2022-11-20T16:02:39;36.90;;;19.00;;
66353;SDS011;53150;48.296;16.452;2022-11-20T16:05:08;38.67;;;19.75;;
66353;SDS011;53150;48.296;16.452;2022-11-20T16:07:36;41.00;;;22.40;;
66353;SDS011;53150;48.296;16.452;2022-11-20T16:10:02;39.50;;;21.58;;
66353;SDS011;53150;48.296;16.452;2022-11-20T16:12:28;38.13;;;20.52;;
66353;SDS011;53150;48.296;16.452;2022-11-20T16:15:13;35.45;;;19.80;;
66353;SDS011;53150;48.296;16.452;2022-11-20T16:17:57;35.33;;;17.73;;
66353;SDS011;53150;48.296;16.452;2022-11-20T16:20:26;39.53;;;21.08;;